METAR Data
IDs: Format: Raw Decoded Include TAF

Data at: 2039 UTC 18 Apr 2021

KMYL 181951Z AUTO 16007KT 10SM CLR 14/M03 A3017 RMK AO2 SLP211 T01391028

KMYL 181724Z 1818/1918 VRB05KT P6SM SKC
  FM190700 VRB05KT P6SM SCT050
  FM191200 36008KT P6SM VCSH BKN050
  FM191600 35012G18KT P6SM SCT050